Weather at Moorea Temae Airport

Public forecast

Using degrees Celsius for public forecast. Weather courtesy of forecast.io.

Closest aviation weather report (METAR) to Moorea Temae Airport

Closest report is Faa'a International Airport, 9.7 nm (17.9 km) ESE. Retrieved 2022/06/27 22:30 UTC (19 minutes ago):

NTAA 272230Z 22008KT 9999 FEW026 SCT033 28/21 Q1016 WS ALL RWY NOSIG

Closest aviation forecast (TAF) to Moorea Temae Airport

Closest forecast is Faa'a International Airport, 9.7 nm (17.9 km) ESE. Retrieved 2022/06/27 18:26 UTC (4 hours ago):

TAF NTAA 271700Z 2718/2824 VRB03KT 9999 FEW026 PROB30 TEMPO 2721/2803 05015G25KT